Airport ID:K2O1
Update Time (UTC):16/10/2021 23:58
Wind Speed (Knots):13
Wind Direction (Magnetic):220
Temperature (°C):24
Dew Point (°C):-3
Humidity (%):17
Altimeter (inHg):29.98
Density Altitude (Feet):5200
Visibility:10+
Clouds (Hundreds of feet):***
Present Weather:
METAR:METAR K2O1 162355Z AUTO 22009G16KT 180V260 10SM 24/M03 A2998 RMK A01

The data displayed is for advisory purposes only and is not to be used for flight planning or operations.